Time;durP1;ratioP1;P1;durP2;ratioP2;P2;SDS_P1;SDS_P2;PMS_P1;PMS_P2;Temp;Humidity;BMP_temperature;BMP_pressure;BME280_temperature;BME280_humidity;BME280_pressure;Samples;Min_cycle;Max_cycle;Signal;HPM_P1;HPM_P2
2022/04/21 00:00:52;;;;;;;5.93;4.80;;;15.00;41.20;;;;;;5086430;27;20471;-86
2022/04/21 00:03:19;;;;;;;9.23;5.47;;;15.00;41.30;;;;;;5095832;27;20437;-88
2022/04/21 00:05:48;;;;;;;5.73;5.23;;;15.00;40.90;;;;;;5093814;27;20491;-87
2022/04/21 00:08:17;;;;;;;5.87;4.77;;;15.00;41.10;;;;;;5093656;27;20435;-88
2022/04/21 00:10:46;;;;;;;9.63;6.73;;;15.00;41.40;;;;;;5076633;28;20469;-88
2022/04/21 00:13:14;;;;;;;7.73;5.00;;;15.00;41.70;;;;;;5099210;27;20454;-88
2022/04/21 00:15:45;;;;;;;5.50;4.97;;;15.00;42.20;;;;;;5087687;27;20457;-87
2022/04/21 00:18:15;;;;;;;8.63;5.20;;;14.80;42.50;;;;;;5094051;27;20442;-86
2022/04/21 00:20:42;;;;;;;5.07;4.57;;;14.70;42.50;;;;;;5104262;28;20541;-87
2022/04/21 00:23:29;;;;;;;6.47;5.60;;;14.60;42.40;;;;;;5096452;27;20521;-88
2022/04/21 00:26:00;;;;;;;5.57;4.57;;;14.50;42.10;;;;;;5066096;27;20503;-87
2022/04/21 00:28:28;;;;;;;11.40;6.10;;;14.50;42.30;;;;;;5104800;27;20473;-87
2022/04/21 00:30:58;;;;;;;6.00;5.00;;;14.50;42.50;;;;;;5098439;27;20471;-88
2022/04/21 00:33:27;;;;;;;6.97;6.27;;;14.00;42.70;;;;;;5084711;27;20686;-87
2022/04/21 00:35:56;;;;;;;7.60;5.93;;;13.90;43.30;;;;;;5083329;27;20522;-87
2022/04/21 00:38:24;;;;;;;6.97;5.30;;;13.80;42.90;;;;;;5093225;27;20482;-88
2022/04/21 00:40:52;;;;;;;9.13;6.40;;;13.80;44.40;;;;;;5078793;28;20834;-87
2022/04/21 00:43:21;;;;;;;6.30;4.87;;;13.20;44.50;;;;;;5070896;27;21100;-88
2022/04/21 00:45:49;;;;;;;9.60;6.60;;;12.90;44.90;;;;;;5080126;28;20461;-87
2022/04/21 00:48:18;;;;;;;6.40;5.80;;;12.90;45.20;;;;;;5094267;28;21206;-87
2022/04/21 00:50:49;;;;;;;7.40;5.90;;;12.90;45.10;;;;;;5081018;28;21058;-88
2022/04/21 00:53:19;;;;;;;9.90;6.13;;;13.10;45.50;;;;;;5061242;28;20792;-88
2022/04/21 00:55:49;;;;;;;11.10;6.30;;;13.10;44.80;;;;;;5094131;28;20446;-88
2022/04/21 00:58:21;;;;;;;6.87;5.20;;;13.10;45.30;;;;;;5098035;28;20447;-87
2022/04/21 01:00:49;;;;;;;6.87;6.17;;;13.20;44.70;;;;;;5096255;28;20488;-87
2022/04/21 01:03:18;;;;;;;6.50;5.80;;;13.40;44.40;;;;;;5094656;28;20449;-87
2022/04/21 01:05:49;;;;;;;7.00;5.97;;;13.40;44.60;;;;;;5069730;28;20463;-87
2022/04/21 01:08:17;;;;;;;6.90;6.20;;;13.20;44.90;;;;;;5079945;28;20500;-88
2022/04/21 01:10:46;;;;;;;7.47;6.03;;;13.30;44.50;;;;;;5093436;28;20473;-87
2022/04/21 01:13:15;;;;;;;10.03;7.20;;;13.40;44.50;;;;;;5091311;28;20495;-87
2022/04/21 01:15:43;;;;;;;8.07;7.27;;;13.30;44.30;;;;;;5116011;27;20438;-89
2022/04/21 01:18:12;;;;;;;7.77;6.70;;;13.30;44.30;;;;;;5081738;27;20956;-87
2022/04/21 01:20:41;;;;;;;8.90;6.60;;;13.10;44.60;;;;;;5079366;27;20493;-89
2022/04/21 01:23:10;;;;;;;10.03;6.90;;;13.20;44.60;;;;;;5100571;27;20533;-87
2022/04/21 01:25:39;;;;;;;10.60;6.67;;;13.30;44.80;;;;;;5095210;27;20435;-87
2022/04/21 01:28:09;;;;;;;9.23;7.00;;;13.30;44.20;;;;;;5091107;27;20963;-87
2022/04/21 01:30:38;;;;;;;8.27;6.80;;;13.30;44.00;;;;;;5099969;27;20489;-90
2022/04/21 01:33:06;;;;;;;14.23;8.20;;;13.00;44.90;;;;;;5098387;27;20903;-87
2022/04/21 01:35:34;;;;;;;10.33;7.53;;;13.10;45.10;;;;;;5097022;27;20460;-89
2022/04/21 01:43:35;;;;;;;6.83;6.17;;;13.50;45.30;;;;;;5104515;27;20441;-87
2022/04/21 01:46:03;;;;;;;10.63;7.00;;;13.50;46.40;;;;;;5086058;27;20546;-90
2022/04/21 01:48:31;;;;;;;8.00;6.97;;;13.50;46.30;;;;;;5087761;27;20534;-89
2022/04/21 01:50:59;;;;;;;7.53;6.60;;;13.60;45.90;;;;;;5065899;27;20466;-88
2022/04/21 01:53:30;;;;;;;8.10;5.97;;;13.70;45.60;;;;;;5097075;27;20446;-89
2022/04/21 01:55:58;;;;;;;6.70;6.00;;;13.70;45.20;;;;;;5088954;27;20465;-87
2022/04/21 01:58:27;;;;;;;7.70;6.10;;;13.80;45.00;;;;;;5097853;27;20435;-88
2022/04/21 02:00:55;;;;;;;7.80;6.10;;;13.80;44.20;;;;;;5099599;27;20470;-89
2022/04/21 02:03:24;;;;;;;7.90;6.67;;;13.80;44.30;;;;;;5078953;27;21142;-87
2022/04/21 02:05:52;;;;;;;8.60;6.93;;;13.70;44.50;;;;;;5081044;27;20531;-88
2022/04/21 02:08:20;;;;;;;9.10;6.70;;;13.60;44.50;;;;;;5090622;27;21094;-87
2022/04/21 02:10:51;;;;;;;8.57;6.20;;;13.50;44.80;;;;;;5065446;28;20466;-87
2022/04/21 02:13:19;;;;;;;9.57;6.53;;;13.50;44.60;;;;;;5074895;27;20445;-87
2022/04/21 02:15:47;;;;;;;11.53;7.80;;;13.60;44.50;;;;;;5081161;27;20450;-87
2022/04/21 02:18:17;;;;;;;8.10;7.07;;;13.50;44.50;;;;;;5081965;27;20439;-87
2022/04/21 02:20:44;;;;;;;9.87;7.30;;;13.40;44.80;;;;;;5067194;27;20577;-89
2022/04/21 02:23:14;;;;;;;8.90;7.20;;;13.20;44.90;;;;;;5086412;27;20451;-87
2022/04/21 02:25:42;;;;;;;8.97;7.70;;;13.10;45.60;;;;;;5077361;27;21026;-87
2022/04/21 02:28:13;;;;;;;11.60;7.20;;;13.00;45.90;;;;;;5078753;27;20528;-87
2022/04/21 02:30:42;;;;;;;8.03;7.07;;;13.00;45.90;;;;;;5071212;27;20500;-88
2022/04/21 02:33:09;;;;;;;7.90;6.53;;;13.00;45.80;;;;;;5085681;27;20461;-87
2022/04/21 02:35:38;;;;;;;7.87;6.30;;;12.90;45.90;;;;;;5097329;27;20448;-88
2022/04/21 02:38:07;;;;;;;9.33;7.30;;;13.00;45.40;;;;;;5078565;27;20530;-87
2022/04/21 02:40:35;;;;;;;11.53;7.50;;;13.10;44.80;;;;;;5082876;27;20849;-88
2022/04/21 02:43:04;;;;;;;8.70;6.93;;;13.00;44.70;;;;;;5096074;27;20515;-88
2022/04/21 02:45:32;;;;;;;8.30;6.77;;;13.00;44.70;;;;;;5088967;27;20498;-88
2022/04/21 02:48:00;;;;;;;10.07;7.97;;;13.00;45.00;;;;;;5078346;27;20458;-88
2022/04/21 02:50:29;;;;;;;9.07;6.70;;;13.10;45.10;;;;;;5059003;27;20470;-90
2022/04/21 02:52:59;;;;;;;11.70;7.90;;;13.00;44.90;;;;;;5097227;27;20492;-86
2022/04/21 02:58:14;;;;;;;10.80;8.20;;;12.90;44.50;;;;;;5073703;27;20434;-88
2022/04/21 03:00:44;;;;;;;10.13;7.30;;;12.70;45.90;;;;;;5094485;27;20463;-87
2022/04/21 03:03:13;;;;;;;10.50;8.17;;;12.60;45.40;;;;;;5088183;27;20517;-88
2022/04/21 03:05:42;;;;;;;9.80;7.43;;;12.60;45.60;;;;;;5094078;27;20448;-87
2022/04/21 03:08:10;;;;;;;9.13;6.70;;;12.70;45.70;;;;;;5089827;27;20465;-87
2022/04/21 03:10:38;;;;;;;13.93;7.47;;;12.70;45.80;;;;;;5076437;27;20559;-88
2022/04/21 03:13:07;;;;;;;8.90;6.70;;;12.70;45.80;;;;;;5095279;27;20504;-89
2022/04/21 03:15:35;;;;;;;10.40;6.00;;;12.80;45.80;;;;;;5110056;27;20434;-88
2022/04/21 03:18:06;;;;;;;9.60;6.60;;;12.80;46.10;;;;;;5095467;27;20435;-87
2022/04/21 03:26:05;;;;;;;11.47;7.93;;;12.80;46.30;;;;;;5090747;28;20431;-88
2022/04/21 03:28:34;;;;;;;13.43;7.47;;;12.80;46.10;;;;;;5089962;27;20499;-87
2022/04/21 03:31:01;;;;;;;9.73;7.50;;;12.90;46.40;;;;;;5087500;27;20475;-87
2022/04/21 03:33:31;;;;;;;8.70;7.50;;;12.90;46.50;;;;;;5096398;27;20517;-88
2022/04/21 03:35:59;;;;;;;8.00;7.20;;;12.90;46.50;;;;;;5088162;27;21003;-90
2022/04/21 03:38:27;;;;;;;11.33;7.20;;;13.00;46.60;;;;;;5085802;27;20463;-88
2022/04/21 03:40:56;;;;;;;9.87;7.87;;;13.00;46.70;;;;;;5081978;27;20473;-87
2022/04/21 03:43:24;;;;;;;12.53;10.20;;;13.00;46.40;;;;;;5095426;27;20985;-89
2022/04/21 03:45:52;;;;;;;16.43;12.30;;;13.00;46.70;;;;;;5099740;27;20518;-88
2022/04/21 03:48:20;;;;;;;12.57;9.50;;;13.00;46.70;;;;;;5077603;27;20526;-88
2022/04/21 03:50:49;;;;;;;9.60;8.20;;;13.00;47.00;;;;;;5092515;27;21401;-88
2022/04/21 03:53:17;;;;;;;12.70;7.37;;;13.00;47.20;;;;;;5073014;27;20888;-87
2022/04/21 03:55:45;;;;;;;8.73;7.30;;;13.00;47.30;;;;;;5075036;27;20502;-88
2022/04/21 03:58:12;;;;;;;10.63;7.30;;;13.00;47.60;;;;;;5081772;27;21058;-89
2022/04/21 04:00:41;;;;;;;8.70;7.07;;;13.00;47.90;;;;;;5114227;27;20501;-88
2022/04/21 04:03:09;;;;;;;8.10;7.10;;;13.00;48.00;;;;;;5081768;27;20461;-88
2022/04/21 04:05:37;;;;;;;9.00;7.60;;;13.00;48.00;;;;;;5099667;27;20936;-88
2022/04/21 04:10:53;;;;;;;8.47;7.40;;;12.90;48.00;;;;;;5081507;27;20466;-89
2022/04/21 04:13:21;;;;;;;11.87;7.33;;;13.00;47.80;;;;;;5095582;27;21533;-89
2022/04/21 04:15:51;;;;;;;14.70;7.93;;;13.00;47.80;;;;;;5088038;27;20447;-89
2022/04/21 04:18:21;;;;;;;8.70;7.80;;;12.90;47.60;;;;;;5094495;27;20449;-88
2022/04/21 04:20:50;;;;;;;11.10;7.70;;;12.90;47.50;;;;;;5100898;28;20473;-90
2022/04/21 04:23:21;;;;;;;11.77;8.57;;;12.80;47.50;;;;;;5086710;27;20445;-89
2022/04/21 04:25:49;;;;;;;10.60;7.43;;;12.70;47.60;;;;;;5084763;27;20471;-89
2022/04/21 04:28:17;;;;;;;9.93;7.93;;;12.60;48.00;;;;;;5085991;28;20497;-89
2022/04/21 04:30:45;;;;;;;10.80;7.77;;;12.50;48.00;;;;;;5070857;27;20474;-87
2022/04/21 04:33:14;;;;;;;10.10;7.73;;;12.50;47.90;;;;;;5082899;27;20441;-89
2022/04/21 04:35:42;;;;;;;8.57;6.90;;;12.60;48.10;;;;;;5094626;27;20435;-90
2022/04/21 04:38:11;;;;;;;12.00;8.40;;;12.60;48.10;;;;;;5093781;28;22150;-89
2022/04/21 04:40:40;;;;;;;9.47;8.13;;;12.60;47.90;;;;;;5077654;28;20466;-89
2022/04/21 04:43:07;;;;;;;16.97;10.87;;;12.50;48.20;;;;;;5077918;28;20443;-89
2022/04/21 04:48:20;;;;;;;18.30;12.00;;;12.60;48.50;;;;;;5069916;28;20558;-89
2022/04/21 04:50:49;;;;;;;13.07;8.93;;;12.70;48.90;;;;;;5086853;27;20464;-89
2022/04/21 04:53:16;;;;;;;13.23;9.37;;;12.70;48.50;;;;;;5085827;27;20545;-89
2022/04/21 04:55:49;;;;;;;9.50;7.97;;;12.80;49.00;;;;;;5106318;27;21014;-89
2022/04/21 04:58:18;;;;;;;8.00;7.17;;;12.70;49.30;;;;;;5112212;27;20480;-89
2022/04/21 05:00:48;;;;;;;9.60;8.27;;;12.70;49.00;;;;;;5079662;27;20472;-89
2022/04/21 05:03:18;;;;;;;15.73;11.37;;;12.90;49.00;;;;;;5105644;27;20565;-90
2022/04/21 05:05:47;;;;;;;15.00;10.10;;;12.90;48.90;;;;;;5093544;27;20453;-90
2022/04/21 05:08:15;;;;;;;16.27;11.20;;;12.90;49.00;;;;;;5102906;27;20462;-89
2022/04/21 05:10:43;;;;;;;15.93;9.47;;;12.90;49.00;;;;;;5106723;27;20468;-90
2022/04/21 05:13:13;;;;;;;9.60;8.50;;;13.00;49.10;;;;;;5073391;27;20465;-89
2022/04/21 05:15:43;;;;;;;9.00;7.53;;;12.90;49.40;;;;;;5101257;28;20453;-90
2022/04/21 05:18:13;;;;;;;11.13;8.57;;;12.90;48.70;;;;;;5095901;27;20652;-90
2022/04/21 05:20:42;;;;;;;8.30;7.07;;;12.90;49.00;;;;;;5104768;27;20879;-89
2022/04/21 05:23:14;;;;;;;8.60;7.43;;;13.00;48.90;;;;;;5096719;27;21945;-89
2022/04/21 05:25:44;;;;;;;10.67;7.77;;;13.10;49.10;;;;;;5101193;27;20442;-89
2022/04/21 05:28:14;;;;;;;14.30;8.60;;;13.10;48.70;;;;;;5069755;27;20516;-89
2022/04/21 05:30:59;;;;;;;13.27;8.63;;;13.00;48.60;;;;;;5103832;27;20490;-89
2022/04/21 05:33:29;;;;;;;10.83;8.53;;;12.90;49.30;;;;;;5104734;27;20435;-89
2022/04/21 05:35:59;;;;;;;10.07;8.10;;;13.00;49.00;;;;;;5089954;27;20444;-90
2022/04/21 05:38:28;;;;;;;14.67;8.40;;;13.10;49.00;;;;;;5088724;27;20551;-89
2022/04/21 05:40:56;;;;;;;11.37;8.70;;;13.20;48.70;;;;;;5085857;27;20462;-89
2022/04/21 05:43:31;;;;;;;11.30;8.53;;;13.10;48.80;;;;;;5103758;27;20438;-90
2022/04/21 05:45:59;;;;;;;10.70;7.03;;;13.20;48.80;;;;;;5104530;27;20442;-89
2022/04/21 05:48:28;;;;;;;10.40;8.00;;;12.90;49.50;;;;;;5088232;27;20480;-89
2022/04/21 05:50:57;;;;;;;10.30;8.57;;;12.80;49.90;;;;;;5085658;27;20457;-90
2022/04/21 05:53:27;;;;;;;12.07;8.00;;;12.90;49.90;;;;;;5088755;27;20444;-89
2022/04/21 05:55:56;;;;;;;10.93;8.27;;;12.80;49.80;;;;;;5094112;27;20507;-90
2022/04/21 05:58:24;;;;;;;9.90;8.57;;;13.00;49.80;;;;;;5104451;27;20443;-90
2022/04/21 06:00:55;;;;;;;8.47;7.57;;;13.10;49.70;;;;;;5105764;27;20571;-89
2022/04/21 06:03:23;;;;;;;9.40;7.40;;;13.10;49.50;;;;;;5100241;27;20519;-89
2022/04/21 06:05:52;;;;;;;9.67;7.93;;;13.30;49.60;;;;;;5101601;27;20973;-88
2022/04/21 06:08:20;;;;;;;9.23;7.10;;;13.40;49.10;;;;;;5100211;27;20828;-89
2022/04/21 06:10:49;;;;;;;8.70;7.80;;;13.20;48.50;;;;;;5099423;27;20462;-89
2022/04/21 06:13:18;;;;;;;12.50;6.70;;;13.20;49.20;;;;;;5074538;27;20448;-89
2022/04/21 06:15:48;;;;;;;11.37;8.30;;;13.30;49.20;;;;;;5097122;27;20534;-88
2022/04/21 06:18:17;;;;;;;9.17;8.10;;;13.40;48.60;;;;;;5098580;27;20830;-89
2022/04/21 06:20:47;;;;;;;8.60;7.10;;;13.30;48.60;;;;;;5085314;27;20464;-90
2022/04/21 06:23:17;;;;;;;8.90;7.10;;;13.10;48.90;;;;;;5098578;28;20801;-89
2022/04/21 06:25:46;;;;;;;9.40;7.37;;;13.00;49.10;;;;;;5099282;27;20499;-89
2022/04/21 06:28:15;;;;;;;10.03;7.83;;;13.10;49.40;;;;;;5115026;27;20532;-89
2022/04/21 06:30:43;;;;;;;12.37;8.10;;;13.40;48.70;;;;;;5086936;27;20992;-92
2022/04/21 06:33:12;;;;;;;7.90;7.10;;;13.40;47.90;;;;;;5089011;27;20452;-90
2022/04/21 06:35:42;;;;;;;10.80;8.10;;;13.30;48.40;;;;;;5092407;27;20852;-90
2022/04/21 06:38:10;;;;;;;8.13;7.23;;;12.90;49.20;;;;;;5090334;27;21238;-90
2022/04/21 06:40:38;;;;;;;9.60;7.70;;;12.90;49.60;;;;;;5099393;27;20560;-89
2022/04/21 06:48:34;;;;;;;8.17;7.30;;;13.30;49.20;;;;;;5085319;27;20541;-90
2022/04/21 06:51:05;;;;;;;10.77;6.93;;;13.40;49.20;;;;;;5098010;27;20450;-90
2022/04/21 06:53:34;;;;;;;23.73;8.53;;;13.50;49.10;;;;;;5084086;27;21379;-90
2022/04/21 06:56:03;;;;;;;13.73;8.53;;;13.80;48.80;;;;;;5076094;27;20446;-89
2022/04/21 06:58:31;;;;;;;13.10;8.80;;;13.80;48.20;;;;;;5072512;27;20484;-90
2022/04/21 07:00:58;;;;;;;10.20;7.83;;;13.60;48.60;;;;;;5082840;27;20564;-90
2022/04/21 07:03:27;;;;;;;11.27;8.10;;;13.60;48.90;;;;;;5109115;27;20510;-89
2022/04/21 07:05:55;;;;;;;9.53;8.60;;;13.70;49.00;;;;;;5090423;27;20479;-92
2022/04/21 07:08:25;;;;;;;8.97;7.50;;;13.80;48.90;;;;;;5093013;27;20493;-89
2022/04/21 07:10:53;;;;;;;12.70;9.00;;;13.70;49.00;;;;;;5063981;27;21020;-89
2022/04/21 07:13:22;;;;;;;17.57;7.90;;;14.00;49.00;;;;;;5103335;27;20481;-90
2022/04/21 07:15:50;;;;;;;13.90;8.33;;;14.00;48.80;;;;;;5100873;27;20439;-89
2022/04/21 07:18:18;;;;;;;11.57;7.73;;;14.00;49.00;;;;;;5075802;27;20442;-90
2022/04/21 07:20:46;;;;;;;71.03;30.90;;;14.10;49.00;;;;;;5117197;27;21123;-89
2022/04/21 07:23:14;;;;;;;153.60;54.67;;;14.30;48.80;;;;;;5104813;27;21051;-88
2022/04/21 07:25:44;;;;;;;72.17;29.97;;;14.50;48.30;;;;;;5085615;27;20497;-90
2022/04/21 07:28:14;;;;;;;24.67;12.13;;;14.60;48.00;;;;;;5102654;27;20546;-89
2022/04/21 07:30:42;;;;;;;11.30;8.60;;;14.60;48.20;;;;;;5096821;27;20556;-90
2022/04/21 07:33:11;;;;;;;11.03;9.07;;;14.60;48.00;;;;;;5090283;27;20430;-89
2022/04/21 07:35:41;;;;;;;10.97;7.80;;;14.60;48.20;;;;;;5097016;27;20443;-90
2022/04/21 07:38:10;;;;;;;10.03;8.60;;;14.60;47.90;;;;;;5083281;27;20474;-89
2022/04/21 07:40:39;;;;;;;13.67;9.20;;;14.80;47.90;;;;;;5107397;27;21254;-90
2022/04/21 07:43:09;;;;;;;11.87;7.90;;;15.00;47.60;;;;;;5088948;27;20434;-90
2022/04/21 07:45:39;;;;;;;10.57;8.23;;;15.00;46.40;;;;;;5088666;27;20450;-88
2022/04/21 07:48:09;;;;;;;10.20;7.67;;;15.00;47.30;;;;;;5092181;27;20494;-91
2022/04/21 07:50:38;;;;;;;9.43;7.90;;;15.30;46.10;;;;;;5072372;28;20465;-91
2022/04/21 07:53:14;;;;;;;10.63;7.90;;;15.30;46.10;;;;;;5086316;27;20477;-90
2022/04/21 07:55:44;;;;;;;10.23;8.37;;;15.40;46.10;;;;;;5085391;27;20450;-89
2022/04/21 07:58:15;;;;;;;8.10;6.30;;;15.50;45.80;;;;;;5076067;27;20442;-88
2022/04/21 08:00:44;;;;;;;8.70;6.17;;;15.40;44.90;;;;;;5074183;27;20454;-90
2022/04/21 08:03:15;;;;;;;6.00;5.40;;;15.40;45.20;;;;;;5065549;27;20494;-90
2022/04/21 08:05:45;;;;;;;9.70;5.90;;;15.50;44.00;;;;;;5105656;27;20434;-90
2022/04/21 08:08:13;;;;;;;9.17;6.17;;;15.40;44.00;;;;;;5101622;27;20931;-89
2022/04/21 08:10:42;;;;;;;8.27;6.40;;;15.60;43.50;;;;;;5088260;28;20471;-90
2022/04/21 08:13:19;;;;;;;6.03;5.33;;;15.40;44.00;;;;;;5104867;27;20446;-90
2022/04/21 08:15:48;;;;;;;6.03;5.43;;;15.70;43.60;;;;;;5072588;28;20538;-90
2022/04/21 08:18:16;;;;;;;8.10;5.40;;;15.90;43.60;;;;;;5070619;27;20431;-89
2022/04/21 08:20:45;;;;;;;6.73;4.53;;;16.20;42.30;;;;;;5100889;27;20465;-92
2022/04/21 08:23:13;;;;;;;7.47;5.57;;;16.30;42.40;;;;;;5088765;27;20468;-90
2022/04/21 08:34:02;;;;;;;5.90;4.83;;;16.20;41.80;;;;;;5101917;27;20449;-90
2022/04/21 08:36:30;;;;;;;9.83;5.70;;;16.10;42.40;;;;;;5117555;27;20441;-91
2022/04/21 08:38:59;;;;;;;9.47;5.03;;;16.10;42.40;;;;;;5072784;28;20869;-89
2022/04/21 08:41:30;;;;;;;10.27;5.47;;;16.30;42.50;;;;;;5098465;27;21434;-91
2022/04/21 08:44:03;;;;;;;8.47;4.90;;;16.40;41.90;;;;;;5083987;28;20499;-90
2022/04/21 08:46:34;;;;;;;6.67;4.40;;;16.70;41.30;;;;;;5098938;28;20791;-90
2022/04/21 08:49:03;;;;;;;6.57;4.87;;;16.90;41.50;;;;;;5084216;28;20466;-90
2022/04/21 08:51:33;;;;;;;6.40;4.70;;;17.30;41.00;;;;;;5087796;28;20461;-90
2022/04/21 08:54:02;;;;;;;4.30;3.90;;;17.60;40.70;;;;;;5116010;28;20446;-91
2022/04/21 08:56:31;;;;;;;5.73;4.33;;;17.70;40.20;;;;;;5066453;28;20514;-90
2022/04/21 08:59:01;;;;;;;6.30;5.00;;;17.70;39.40;;;;;;5086862;28;20558;-90
2022/04/21 09:01:33;;;;;;;5.00;4.20;;;17.50;39.60;;;;;;5067136;28;20832;-90
2022/04/21 09:04:02;;;;;;;10.43;4.73;;;17.10;40.10;;;;;;5091162;28;20929;-91
2022/04/21 09:06:30;;;;;;;4.43;4.00;;;17.00;40.30;;;;;;5068516;28;20443;-91
2022/04/21 09:09:16;;;;;;;9.80;5.07;;;17.10;40.40;;;;;;5072755;28;20463;-90
2022/04/21 09:11:45;;;;;;;7.07;5.03;;;17.10;39.60;;;;;;5087797;28;20868;-90
2022/04/21 09:14:17;;;;;;;20.07;8.67;;;16.90;40.30;;;;;;5091429;28;20445;-90
2022/04/21 09:16:45;;;;;;;5.67;4.67;;;16.80;40.30;;;;;;5103342;28;20431;-90
2022/04/21 09:19:14;;;;;;;6.00;4.63;;;16.90;41.10;;;;;;5088806;28;20457;-90
2022/04/21 09:21:42;;;;;;;8.83;5.60;;;16.90;40.50;;;;;;5079672;28;20470;-89
2022/04/21 09:24:21;;;;;;;6.10;5.47;;;16.90;41.10;;;;;;5100850;28;20529;-91
2022/04/21 09:26:50;;;;;;;5.87;4.87;;;16.80;41.00;;;;;;5073057;28;20499;-88
2022/04/21 09:29:28;;;;;;;9.83;5.23;;;16.90;40.70;;;;;;5105925;28;20455;-90
2022/04/21 09:31:58;;;;;;;7.10;5.57;;;17.00;40.90;;;;;;5081012;28;20442;-89
2022/04/21 09:34:27;;;;;;;6.13;3.90;;;17.10;40.30;;;;;;5088418;28;20438;-91
2022/04/21 09:36:56;;;;;;;8.43;5.27;;;17.30;41.40;;;;;;5106700;27;20444;-90
2022/04/21 09:39:24;;;;;;;6.17;4.63;;;17.20;40.60;;;;;;5108628;27;21045;-90
2022/04/21 09:41:55;;;;;;;6.70;4.50;;;17.20;40.60;;;;;;5068173;27;20453;-90
2022/04/21 09:47:19;;;;;;;11.33;5.40;;;17.30;40.10;;;;;;5089689;27;20431;-91
2022/04/21 09:49:48;;;;;;;7.90;5.03;;;17.40;39.10;;;;;;5109412;27;20470;-87
2022/04/21 09:52:27;;;;;;;5.30;4.80;;;17.40;39.30;;;;;;5095124;27;20447;-89
2022/04/21 09:54:56;;;;;;;5.50;5.00;;;17.40;40.10;;;;;;5081466;27;21497;-91
2022/04/21 09:57:31;;;;;;;6.33;5.13;;;17.50;38.60;;;;;;5075538;27;20456;-90
2022/04/21 10:00:03;;;;;;;5.30;4.80;;;17.60;39.10;;;;;;5088473;27;20462;-90
2022/04/21 10:02:35;;;;;;;9.83;5.70;;;17.80;39.40;;;;;;5091028;27;20502;-87
2022/04/21 10:05:05;;;;;;;11.20;5.27;;;17.90;37.80;;;;;;5107874;27;20446;-91
2022/04/21 10:07:35;;;;;;;7.20;6.50;;;17.90;38.20;;;;;;5088630;27;20433;-90
2022/04/21 10:10:03;;;;;;;6.27;5.67;;;17.70;38.30;;;;;;5085022;27;20470;-89
2022/04/21 10:12:31;;;;;;;6.97;5.07;;;17.70;38.60;;;;;;5092647;27;21169;-90
2022/04/21 10:15:03;;;;;;;7.20;5.63;;;17.90;37.70;;;;;;5106649;27;20442;-89
2022/04/21 10:17:31;;;;;;;8.03;4.90;;;18.00;37.40;;;;;;5090112;27;20439;-89
2022/04/21 10:20:02;;;;;;;6.37;4.80;;;18.30;37.80;;;;;;5065560;27;20520;-92
2022/04/21 10:22:33;;;;;;;12.30;7.83;;;18.50;38.10;;;;;;5101311;27;20460;-91
2022/04/21 10:25:03;;;;;;;7.30;5.40;;;18.50;37.50;;;;;;5103721;27;20455;-91
2022/04/21 10:27:38;;;;;;;5.23;4.73;;;18.70;38.00;;;;;;5084348;27;20431;-90
2022/04/21 10:30:16;;;;;;;6.93;6.20;;;18.70;36.80;;;;;;5084398;27;20466;-91
2022/04/21 10:32:51;;;;;;;9.77;5.13;;;18.70;36.70;;;;;;5081359;27;20441;-91
2022/04/21 10:35:47;;;;;;;8.73;7.77;;;18.60;36.50;;;;;;5087739;27;20856;-90
2022/04/21 10:38:22;;;;;;;6.13;5.53;;;18.90;36.70;;;;;;5089688;27;20445;-92
2022/04/21 10:41:00;;;;;;;7.63;6.87;;;19.00;35.90;;;;;;5086176;27;20477;-89
2022/04/21 10:44:00;;;;;;;5.00;4.50;;;18.90;36.20;;;;;;5099796;27;20514;-90
2022/04/21 10:46:30;;;;;;;6.47;4.93;;;18.60;36.80;;;;;;5081136;27;20431;-90
2022/04/21 10:48:59;;;;;;;6.90;5.30;;;18.80;37.20;;;;;;5066653;27;20462;-90
2022/04/21 10:58:50;;;;;;;7.40;5.23;;;19.60;35.90;;;;;;5082455;27;20971;-91
2022/04/21 11:01:34;;;;;;;6.00;5.33;;;19.60;35.30;;;;;;5097263;27;21291;-90
2022/04/21 11:04:27;;;;;;;5.90;5.30;;;19.40;36.00;;;;;;5067848;27;20918;-90
2022/04/21 11:07:07;;;;;;;5.10;4.60;;;19.30;36.10;;;;;;5103597;27;21153;-90
2022/04/21 11:09:38;;;;;;;6.80;5.73;;;19.20;36.60;;;;;;5080819;27;20446;-90
2022/04/21 11:12:10;;;;;;;4.80;4.30;;;19.00;35.70;;;;;;5077537;27;20450;-87
2022/04/21 11:14:40;;;;;;;4.60;4.20;;;19.00;36.50;;;;;;5082031;27;20439;-90
2022/04/21 11:17:11;;;;;;;6.10;4.63;;;19.00;37.00;;;;;;5096082;27;20816;-90
2022/04/21 11:19:44;;;;;;;4.60;4.13;;;19.30;37.10;;;;;;5090229;27;21152;-91
2022/04/21 11:22:14;;;;;;;5.53;4.30;;;19.50;35.50;;;;;;5090951;27;21007;-92
2022/04/21 11:25:03;;;;;;;4.50;4.10;;;19.20;36.50;;;;;;5079764;27;20439;-90
2022/04/21 11:27:37;;;;;;;5.50;3.90;;;19.20;35.90;;;;;;5107850;27;20450;-91
2022/04/21 11:30:07;;;;;;;3.50;3.30;;;19.40;36.50;;;;;;5084775;27;20497;-90
2022/04/21 11:32:38;;;;;;;5.20;4.10;;;19.60;36.00;;;;;;5099024;27;20438;-89
2022/04/21 11:35:10;;;;;;;7.87;5.00;;;19.40;36.20;;;;;;5103961;27;20983;-89
2022/04/21 11:37:50;;;;;;;5.07;4.17;;;19.10;36.90;;;;;;5099971;27;20422;-91
2022/04/21 11:40:29;;;;;;;3.63;3.30;;;19.20;36.70;;;;;;5083484;27;20463;-91
2022/04/21 11:42:59;;;;;;;4.33;3.67;;;19.20;35.90;;;;;;5079432;27;20450;-91
2022/04/21 11:45:29;;;;;;;5.03;4.20;;;19.30;36.10;;;;;;5116874;27;21232;-90
2022/04/21 11:47:58;;;;;;;3.33;3.03;;;19.50;36.60;;;;;;5088173;27;20446;-90
2022/04/21 11:50:28;;;;;;;4.03;3.63;;;19.50;36.10;;;;;;5087775;27;20470;-90
2022/04/21 11:52:59;;;;;;;3.90;3.50;;;19.60;37.00;;;;;;5099109;27;21415;-90
2022/04/21 11:55:29;;;;;;;4.17;3.40;;;19.60;36.50;;;;;;5083601;27;20481;-89
2022/04/21 11:57:58;;;;;;;4.77;3.20;;;19.60;36.20;;;;;;5096662;27;20538;-91
2022/04/21 12:08:48;;;;;;;4.27;3.70;;;20.30;35.00;;;;;;5065255;27;20433;-90
2022/04/21 12:11:19;;;;;;;4.00;3.60;;;20.10;35.50;;;;;;5089966;27;20497;-89
2022/04/21 12:13:48;;;;;;;6.63;4.10;;;20.20;34.80;;;;;;5078565;28;20987;-88
2022/04/21 12:16:41;;;;;;;3.70;3.37;;;20.30;35.10;;;;;;5105710;27;20447;-88
2022/04/21 12:19:19;;;;;;;5.37;3.73;;;20.50;35.80;;;;;;5095064;27;20522;-90
2022/04/21 12:21:56;;;;;;;3.90;3.57;;;20.40;35.00;;;;;;5100288;28;20905;-91
2022/04/21 12:24:34;;;;;;;6.13;3.83;;;20.30;35.70;;;;;;5089784;27;20433;-90
2022/04/21 12:27:04;;;;;;;7.83;4.00;;;20.60;35.70;;;;;;5088561;27;20443;-90
2022/04/21 12:29:45;;;;;;;4.37;4.03;;;20.60;35.20;;;;;;5081538;27;20518;-89
2022/04/21 12:32:18;;;;;;;7.67;4.00;;;20.80;33.90;;;;;;5062898;27;21015;-88
2022/04/21 12:34:49;;;;;;;6.00;5.10;;;20.60;34.60;;;;;;5100386;28;20449;-90
2022/04/21 12:37:23;;;;;;;4.60;3.90;;;21.00;35.20;;;;;;5071026;27;20439;-92
2022/04/21 12:39:53;;;;;;;4.33;4.00;;;21.00;33.60;;;;;;5086938;27;20539;-86
2022/04/21 12:42:21;;;;;;;4.50;3.80;;;21.10;34.20;;;;;;5092968;28;21082;-90
2022/04/21 12:44:51;;;;;;;4.87;4.00;;;21.00;34.50;;;;;;5079385;27;20447;-91
2022/04/21 12:47:19;;;;;;;7.17;4.13;;;21.00;34.00;;;;;;5093445;28;20454;-91
2022/04/21 12:50:00;;;;;;;8.80;3.70;;;21.10;34.10;;;;;;5077698;28;20885;-91
2022/04/21 12:52:37;;;;;;;5.00;4.50;;;20.90;34.90;;;;;;5088910;28;20953;-89
2022/04/21 12:55:09;;;;;;;6.00;4.03;;;21.10;34.80;;;;;;5096323;28;20442;-91
2022/04/21 12:57:37;;;;;;;4.03;3.60;;;21.10;34.10;;;;;;5112506;28;20438;-91
2022/04/21 13:00:08;;;;;;;4.07;3.60;;;21.10;34.60;;;;;;5114617;28;20451;-90
2022/04/21 13:02:37;;;;;;;5.00;3.83;;;21.40;34.60;;;;;;5081331;28;20539;-91
2022/04/21 13:05:08;;;;;;;4.53;4.07;;;21.70;34.00;;;;;;5081656;28;20460;-87
2022/04/21 13:07:37;;;;;;;6.00;3.40;;;21.50;32.90;;;;;;5079076;28;20487;-90
2022/04/21 13:10:06;;;;;;;4.63;3.20;;;21.30;33.90;;;;;;5069696;27;20546;-91
2022/04/21 13:12:34;;;;;;;3.80;3.50;;;21.30;35.90;;;;;;5070680;27;20451;-90
2022/04/21 13:15:04;;;;;;;3.93;3.37;;;21.50;33.60;;;;;;5102216;27;20536;-88
2022/04/21 13:17:32;;;;;;;4.67;2.97;;;21.60;33.60;;;;;;5089598;27;20435;-88
2022/04/21 13:20:00;;;;;;;3.10;2.90;;;21.40;32.50;;;;;;5103668;27;21061;-91
2022/04/21 13:22:28;;;;;;;4.00;2.60;;;21.40;34.40;;;;;;5094571;27;20438;-92
2022/04/21 13:24:56;;;;;;;2.90;2.70;;;21.80;32.90;;;;;;5073881;27;21356;-91
2022/04/21 13:27:26;;;;;;;2.80;2.60;;;22.20;32.10;;;;;;5103344;27;20445;-90
2022/04/21 13:29:53;;;;;;;4.00;2.57;;;22.10;31.40;;;;;;5099746;27;20474;-90
2022/04/21 13:35:09;;;;;;;2.57;2.37;;;21.70;31.70;;;;;;5086473;27;20576;-90
2022/04/21 13:37:39;;;;;;;2.17;2.07;;;21.80;32.50;;;;;;5099731;27;20493;-90
2022/04/21 13:40:08;;;;;;;2.60;2.40;;;21.80;31.90;;;;;;5088907;27;20552;-90
2022/04/21 13:42:36;;;;;;;5.43;2.67;;;21.30;31.90;;;;;;5078901;27;20455;-88
2022/04/21 13:45:05;;;;;;;2.90;2.70;;;20.90;31.80;;;;;;5089778;27;20447;-90
2022/04/21 13:47:35;;;;;;;2.70;2.50;;;20.80;32.10;;;;;;5103028;27;20538;-89
2022/04/21 13:50:05;;;;;;;2.73;2.43;;;20.80;32.60;;;;;;5072102;27;20462;-89
2022/04/21 13:52:33;;;;;;;2.20;2.00;;;20.80;32.90;;;;;;5074961;27;20430;-90